Terminal Aerodrome Forecast
Issued by NWS

Home | Current Version | Previous Version | Text Only | Print | Product List | Glossary On
Versions: 1 2 3 4 5 6 7 8 9 10 11 12 13 14 15 16 17
000
FTUS46 KMFR 180546
TAFRBG
TAF
KRBG 180546Z 1806/1906 00000KT 4SM BR SCT002
     FM180700 00000KT 1/4SM FG VV001
     FM181800 VRB02KT P6SM BKN005
     FM182100 VRB02KT P6SM BKN250
     FM190500 00000KT 4SM BR BKN003=

USA.gov is the U.S. government's official web portal to all federal, state and local government web resources and services.